sensor_id;sensor_type;location;lat;lon;timestamp;pressure;altitude;pressure_sealevel;temperature;humidity
47536;BME280;33278;50.826;9.030;2022-07-22T00:02:12;99039.19;;;23.26;56.82
47536;BME280;33278;50.826;9.030;2022-07-22T00:04:42;99031.53;;;23.28;56.52
47536;BME280;33278;50.826;9.030;2022-07-22T00:07:13;99042.41;;;23.28;56.89
47536;BME280;33278;50.826;9.030;2022-07-22T00:09:44;99038.91;;;23.28;57.12
47536;BME280;33278;50.826;9.030;2022-07-22T00:12:14;99031.84;;;23.27;56.70
47536;BME280;33278;50.826;9.030;2022-07-22T00:14:44;99029.13;;;23.27;56.65
47536;BME280;33278;50.826;9.030;2022-07-22T00:17:15;99031.84;;;23.27;56.82
47536;BME280;33278;50.826;9.030;2022-07-22T00:19:45;99029.47;;;23.25;56.98
47536;BME280;33278;50.826;9.030;2022-07-22T00:22:15;99029.13;;;23.27;57.21
47536;BME280;33278;50.826;9.030;2022-07-22T00:24:46;99025.31;;;23.28;57.12
47536;BME280;33278;50.826;9.030;2022-07-22T00:27:16;99033.47;;;23.28;57.22
47536;BME280;33278;50.826;9.030;2022-07-22T00:29:46;99028.31;;;23.26;57.09
47536;BME280;33278;50.826;9.030;2022-07-22T00:32:17;99028.66;;;23.24;57.04
47536;BME280;33278;50.826;9.030;2022-07-22T00:34:47;99029.47;;;23.25;56.81
47536;BME280;33278;50.826;9.030;2022-07-22T00:37:17;99022.44;;;23.24;57.06
47536;BME280;33278;50.826;9.030;2022-07-22T00:39:48;99031.84;;;23.27;56.96
47536;BME280;33278;50.826;9.030;2022-07-22T00:42:18;99024.81;;;23.26;56.78
47536;BME280;33278;50.826;9.030;2022-07-22T00:44:48;99032.97;;;23.26;56.66
47536;BME280;33278;50.826;9.030;2022-07-22T00:47:19;99022.88;;;23.26;56.99
47536;BME280;33278;50.826;9.030;2022-07-22T00:49:49;99028.31;;;23.26;56.96
47536;BME280;33278;50.826;9.030;2022-07-22T00:52:20;99024.34;;;23.23;56.81
47536;BME280;33278;50.826;9.030;2022-07-22T00:54:51;99026.75;;;23.25;57.03
47536;BME280;33278;50.826;9.030;2022-07-22T00:57:22;99023.22;;;23.24;57.12
47536;BME280;33278;50.826;9.030;2022-07-22T00:59:52;99022.09;;;23.26;57.04
47536;BME280;33278;50.826;9.030;2022-07-22T01:02:23;99030.25;;;23.26;57.29
47536;BME280;33278;50.826;9.030;2022-07-22T01:04:53;99028.31;;;23.26;56.88
47536;BME280;33278;50.826;9.030;2022-07-22T01:07:23;99034.91;;;23.25;56.63
47536;BME280;33278;50.826;9.030;2022-07-22T01:09:54;99031.38;;;23.24;56.96
47536;BME280;33278;50.826;9.030;2022-07-22T01:12:24;99035.22;;;23.23;57.22
47536;BME280;33278;50.826;9.030;2022-07-22T01:14:54;99037.63;;;23.25;56.70
47536;BME280;33278;50.826;9.030;2022-07-22T01:17:25;99037.94;;;23.23;56.98
47536;BME280;33278;50.826;9.030;2022-07-22T01:20:01;99041.13;;;23.26;56.70
47536;BME280;33278;50.826;9.030;2022-07-22T01:22:31;99036.03;;;23.24;56.87
47536;BME280;33278;50.826;9.030;2022-07-22T01:25:02;99025.59;;;23.26;56.68
47536;BME280;33278;50.826;9.030;2022-07-22T01:27:32;99025.94;;;23.24;57.11
47536;BME280;33278;50.826;9.030;2022-07-22T01:30:06;99026.75;;;23.25;56.97
47536;BME280;33278;50.826;9.030;2022-07-22T01:32:36;99025.16;;;23.24;56.80
47536;BME280;33278;50.826;9.030;2022-07-22T01:35:07;99019.72;;;23.24;56.89
47536;BME280;33278;50.826;9.030;2022-07-22T01:37:37;99018.59;;;23.25;56.77
47536;BME280;33278;50.826;9.030;2022-07-22T01:40:08;99019.72;;;23.24;56.89
47536;BME280;33278;50.826;9.030;2022-07-22T01:42:38;99023.22;;;23.24;57.12
47536;BME280;33278;50.826;9.030;2022-07-22T01:45:10;99003.41;;;23.24;57.20
47536;BME280;33278;50.826;9.030;2022-07-22T01:47:40;99014.28;;;23.24;56.84
47536;BME280;33278;50.826;9.030;2022-07-22T01:50:11;99009.16;;;23.22;56.79
47536;BME280;33278;50.826;9.030;2022-07-22T01:52:41;99021.63;;;23.23;56.64
47536;BME280;33278;50.826;9.030;2022-07-22T01:55:12;99024.34;;;23.23;56.90
47536;BME280;33278;50.826;9.030;2022-07-22T01:57:42;99018.13;;;23.23;56.98
47536;BME280;33278;50.826;9.030;2022-07-22T02:00:13;99017.00;;;23.24;56.79
47536;BME280;33278;50.826;9.030;2022-07-22T02:02:44;99015.06;;;23.24;56.57
47536;BME280;33278;50.826;9.030;2022-07-22T02:05:14;99017.78;;;23.24;57.02
47536;BME280;33278;50.826;9.030;2022-07-22T02:07:45;99018.59;;;23.25;56.88
47536;BME280;33278;50.826;9.030;2022-07-22T02:10:15;99019.38;;;22.25;57.42
47536;BME280;33278;50.826;9.030;2022-07-22T02:12:45;99023.38;;;21.53;59.43
47536;BME280;33278;50.826;9.030;2022-07-22T02:15:16;99012.75;;;21.25;60.43
47536;BME280;33278;50.826;9.030;2022-07-22T02:17:46;99012.25;;;21.23;60.78
47536;BME280;33278;50.826;9.030;2022-07-22T02:20:17;99019.53;;;21.13;60.71
47536;BME280;33278;50.826;9.030;2022-07-22T02:22:47;99014.63;;;21.15;60.70
47536;BME280;33278;50.826;9.030;2022-07-22T02:25:17;99014.81;;;21.59;59.69
47536;BME280;33278;50.826;9.030;2022-07-22T02:27:48;99015.47;;;21.74;58.62
47536;BME280;33278;50.826;9.030;2022-07-22T02:30:18;99016.75;;;21.68;59.25
47536;BME280;33278;50.826;9.030;2022-07-22T02:32:48;99014.44;;;21.52;59.70
47536;BME280;33278;50.826;9.030;2022-07-22T02:35:18;99020.31;;;21.45;60.14
47536;BME280;33278;50.826;9.030;2022-07-22T02:37:49;99019.03;;;21.51;59.78
47536;BME280;33278;50.826;9.030;2022-07-22T02:40:20;99021.06;;;21.37;60.13
47536;BME280;33278;50.826;9.030;2022-07-22T02:42:50;99020.75;;;21.39;60.37
47536;BME280;33278;50.826;9.030;2022-07-22T02:45:20;99023.28;;;21.75;59.68
47536;BME280;33278;50.826;9.030;2022-07-22T02:47:53;99022.22;;;21.94;58.88
47536;BME280;33278;50.826;9.030;2022-07-22T02:50:25;99023.50;;;22.05;58.57
47536;BME280;33278;50.826;9.030;2022-07-22T02:52:55;99016.78;;;22.11;58.04
47536;BME280;33278;50.826;9.030;2022-07-22T02:55:25;99019.66;;;22.15;58.02
47536;BME280;33278;50.826;9.030;2022-07-22T02:57:56;99020.47;;;22.16;58.13
47536;BME280;33278;50.826;9.030;2022-07-22T03:00:26;99012.81;;;22.18;58.14
47536;BME280;33278;50.826;9.030;2022-07-22T03:02:56;99014.56;;;22.22;58.06
47536;BME280;33278;50.826;9.030;2022-07-22T03:05:26;99011.06;;;22.22;57.79
47536;BME280;33278;50.826;9.030;2022-07-22T03:07:57;99011.84;;;22.22;57.99
47536;BME280;33278;50.826;9.030;2022-07-22T03:10:27;99010.44;;;22.25;57.86
47536;BME280;33278;50.826;9.030;2022-07-22T03:12:57;99011.84;;;22.22;57.84
47536;BME280;33278;50.826;9.030;2022-07-22T03:15:28;99015.03;;;22.24;57.80
47536;BME280;33278;50.826;9.030;2022-07-22T03:17:58;99010.72;;;22.23;57.51
47536;BME280;33278;50.826;9.030;2022-07-22T03:20:28;99005.00;;;22.25;57.66
47536;BME280;33278;50.826;9.030;2022-07-22T03:22:59;99010.44;;;22.25;57.49
47536;BME280;33278;50.826;9.030;2022-07-22T03:25:29;99015.03;;;22.24;57.29
47536;BME280;33278;50.826;9.030;2022-07-22T03:28:01;99014.75;;;22.26;57.32
47536;BME280;33278;50.826;9.030;2022-07-22T03:30:31;99013.31;;;22.28;57.45
47536;BME280;33278;50.826;9.030;2022-07-22T03:33:02;99014.09;;;22.29;57.49
47536;BME280;33278;50.826;9.030;2022-07-22T03:35:32;99016.03;;;22.28;57.33
47536;BME280;33278;50.826;9.030;2022-07-22T03:38:02;99015.53;;;22.26;57.79
47536;BME280;33278;50.826;9.030;2022-07-22T03:40:34;99016.31;;;22.27;57.47
47536;BME280;33278;50.826;9.030;2022-07-22T03:43:04;99020.19;;;22.26;57.74
47536;BME280;33278;50.826;9.030;2022-07-22T03:45:34;99016.03;;;22.28;57.52
47536;BME280;33278;50.826;9.030;2022-07-22T03:48:05;99022.88;;;22.26;57.75
47536;BME280;33278;50.826;9.030;2022-07-22T03:50:35;99022.88;;;22.26;57.70
47536;BME280;33278;50.826;9.030;2022-07-22T03:53:05;99025.59;;;22.26;57.56
47536;BME280;33278;50.826;9.030;2022-07-22T03:55:36;99022.88;;;22.26;57.22
47536;BME280;33278;50.826;9.030;2022-07-22T03:58:06;99019.03;;;22.27;57.51
47536;BME280;33278;50.826;9.030;2022-07-22T04:00:37;99019.03;;;22.27;57.42
47536;BME280;33278;50.826;9.030;2022-07-22T04:03:07;99024.78;;;22.25;57.16
47536;BME280;33278;50.826;9.030;2022-07-22T04:05:37;99025.59;;;22.26;57.36
47536;BME280;33278;50.826;9.030;2022-07-22T04:08:08;99027.50;;;22.25;57.40
47536;BME280;33278;50.826;9.030;2022-07-22T04:10:38;99017.75;;;22.24;57.50
47536;BME280;33278;50.826;9.030;2022-07-22T04:13:09;99021.13;;;22.30;57.35
47536;BME280;33278;50.826;9.030;2022-07-22T04:15:40;99022.06;;;22.25;57.15
47536;BME280;33278;50.826;9.030;2022-07-22T04:18:10;99021.91;;;22.22;57.24
47536;BME280;33278;50.826;9.030;2022-07-22T04:20:41;99025.75;;;22.21;57.45
47536;BME280;33278;50.826;9.030;2022-07-22T04:23:11;99017.59;;;22.21;57.14
47536;BME280;33278;50.826;9.030;2022-07-22T04:25:42;99028.47;;;22.21;57.33
47536;BME280;33278;50.826;9.030;2022-07-22T04:28:12;99026.22;;;22.23;57.50
47536;BME280;33278;50.826;9.030;2022-07-22T04:30:42;99028.47;;;22.21;57.23
47536;BME280;33278;50.826;9.030;2022-07-22T04:33:13;99025.25;;;22.19;57.06
47536;BME280;33278;50.826;9.030;2022-07-22T04:35:43;99018.72;;;22.20;57.27
47536;BME280;33278;50.826;9.030;2022-07-22T04:38:16;99020.63;;;22.19;57.25
47536;BME280;33278;50.826;9.030;2022-07-22T04:40:46;99027.97;;;22.19;57.19
47536;BME280;33278;50.826;9.030;2022-07-22T04:43:17;99033.88;;;22.21;57.03
47536;BME280;33278;50.826;9.030;2022-07-22T04:45:47;99029.09;;;22.18;57.29
47536;BME280;33278;50.826;9.030;2022-07-22T04:48:17;99035.31;;;22.18;57.01
47536;BME280;33278;50.826;9.030;2022-07-22T04:50:48;99036.44;;;22.17;57.38
47536;BME280;33278;50.826;9.030;2022-07-22T04:53:18;99038.53;;;22.20;57.36
47536;BME280;33278;50.826;9.030;2022-07-22T04:55:48;99035.81;;;22.20;57.80
47536;BME280;33278;50.826;9.030;2022-07-22T04:58:19;99033.88;;;22.21;57.45
47536;BME280;33278;50.826;9.030;2022-07-22T05:00:49;99037.72;;;22.20;58.01
47536;BME280;33278;50.826;9.030;2022-07-22T05:03:20;99039.63;;;22.19;57.56
47536;BME280;33278;50.826;9.030;2022-07-22T05:05:50;99040.41;;;22.20;57.54
47536;BME280;33278;50.826;9.030;2022-07-22T05:08:20;99044.25;;;22.19;57.46
47536;BME280;33278;50.826;9.030;2022-07-22T05:10:50;99046.19;;;22.18;57.40
47536;BME280;33278;50.826;9.030;2022-07-22T05:13:21;99045.06;;;22.19;57.43
47536;BME280;33278;50.826;9.030;2022-07-22T05:15:51;99037.25;;;22.18;57.47
47536;BME280;33278;50.826;9.030;2022-07-22T05:18:21;99040.13;;;22.21;57.09
47536;BME280;33278;50.826;9.030;2022-07-22T05:20:52;99036.59;;;22.21;57.26
47536;BME280;33278;50.826;9.030;2022-07-22T05:23:22;99040.41;;;22.20;57.36
47536;BME280;33278;50.826;9.030;2022-07-22T05:25:52;99049.69;;;22.19;57.46
47536;BME280;33278;50.826;9.030;2022-07-22T05:28:23;99053.22;;;22.19;57.12
47536;BME280;33278;50.826;9.030;2022-07-22T05:30:54;99049.06;;;22.22;56.99
47536;BME280;33278;50.826;9.030;2022-07-22T05:33:24;99048.09;;;22.18;57.09
47536;BME280;33278;50.826;9.030;2022-07-22T05:35:55;99049.38;;;22.20;57.07
47536;BME280;33278;50.826;9.030;2022-07-22T05:38:25;99054.81;;;22.20;57.09
47536;BME280;33278;50.826;9.030;2022-07-22T05:40:55;99050.50;;;22.19;57.06
47536;BME280;33278;50.826;9.030;2022-07-22T05:43:25;99051.78;;;22.22;57.09
47536;BME280;33278;50.826;9.030;2022-07-22T05:45:56;99047.44;;;22.21;57.35
47536;BME280;33278;50.826;9.030;2022-07-22T05:48:26;99044.41;;;22.22;57.16
47536;BME280;33278;50.826;9.030;2022-07-22T05:50:57;99047.78;;;22.19;57.31
47536;BME280;33278;50.826;9.030;2022-07-22T05:53:27;99046.66;;;22.20;57.11
47536;BME280;33278;50.826;9.030;2022-07-22T05:55:57;99050.97;;;22.21;57.27
47536;BME280;33278;50.826;9.030;2022-07-22T05:58:27;99051.78;;;22.22;57.26
47536;BME280;33278;50.826;9.030;2022-07-22T06:00:58;99040.13;;;22.21;57.15
47536;BME280;33278;50.826;9.030;2022-07-22T06:03:28;99045.22;;;22.23;57.19
47536;BME280;33278;50.826;9.030;2022-07-22T06:06:00;99041.25;;;22.20;56.98
47536;BME280;33278;50.826;9.030;2022-07-22T06:08:32;99034.69;;;22.21;56.85
47536;BME280;33278;50.826;9.030;2022-07-22T06:11:02;99038.19;;;22.22;57.09
47536;BME280;33278;50.826;9.030;2022-07-22T06:13:33;99040.41;;;22.20;56.75
47536;BME280;33278;50.826;9.030;2022-07-22T06:16:04;99032.28;;;22.20;56.87
47536;BME280;33278;50.826;9.030;2022-07-22T06:18:34;99044.75;;;22.21;56.75
47536;BME280;33278;50.826;9.030;2022-07-22T06:21:05;99043.13;;;22.20;56.81
47536;BME280;33278;50.826;9.030;2022-07-22T06:23:37;99034.69;;;22.21;57.10
47536;BME280;33278;50.826;9.030;2022-07-22T06:26:07;99032.44;;;22.23;57.01
47536;BME280;33278;50.826;9.030;2022-07-22T06:28:38;99026.72;;;22.25;56.76
47536;BME280;33278;50.826;9.030;2022-07-22T06:31:08;99029.44;;;22.25;57.12
47536;BME280;33278;50.826;9.030;2022-07-22T06:33:38;99031.03;;;22.26;56.64
47536;BME280;33278;50.826;9.030;2022-07-22T06:36:09;99036.47;;;22.26;57.17
47536;BME280;33278;50.826;9.030;2022-07-22T06:38:39;99039.97;;;22.26;56.86
47536;BME280;33278;50.826;9.030;2022-07-22T06:41:10;99039.63;;;22.28;57.01
47536;BME280;33278;50.826;9.030;2022-07-22T06:43:40;99040.59;;;22.32;56.90
47536;BME280;33278;50.826;9.030;2022-07-22T06:46:10;99047.16;;;22.31;56.63
47536;BME280;33278;50.826;9.030;2022-07-22T06:48:41;99045.88;;;22.28;56.76
47536;BME280;33278;50.826;9.030;2022-07-22T06:51:11;99049.88;;;22.31;57.15
47536;BME280;33278;50.826;9.030;2022-07-22T06:53:41;99047.63;;;22.33;56.96
47536;BME280;33278;50.826;9.030;2022-07-22T06:56:12;99044.59;;;22.35;56.60
47536;BME280;33278;50.826;9.030;2022-07-22T06:58:42;99049.22;;;22.34;56.83
47536;BME280;33278;50.826;9.030;2022-07-22T07:01:12;99042.22;;;22.33;56.54
47536;BME280;33278;50.826;9.030;2022-07-22T07:03:43;99043.78;;;22.34;56.56
47536;BME280;33278;50.826;9.030;2022-07-22T07:06:13;99044.09;;;22.33;56.43
47536;BME280;33278;50.826;9.030;2022-07-22T07:08:44;99044.91;;;22.33;56.42
47536;BME280;33278;50.826;9.030;2022-07-22T07:11:14;99039.00;;;22.31;56.59
47536;BME280;33278;50.826;9.030;2022-07-22T07:13:44;99046.50;;;22.34;56.69
47536;BME280;33278;50.826;9.030;2022-07-22T07:16:15;99045.38;;;22.35;56.67
47536;BME280;33278;50.826;9.030;2022-07-22T07:18:45;99046.50;;;22.34;56.22
47536;BME280;33278;50.826;9.030;2022-07-22T07:21:15;99043.47;;;22.36;56.55
47536;BME280;33278;50.826;9.030;2022-07-22T07:23:45;99043.16;;;22.37;56.39
47536;BME280;33278;50.826;9.030;2022-07-22T07:26:16;99039.94;;;22.35;56.48
47536;BME280;33278;50.826;9.030;2022-07-22T07:28:46;99031.34;;;22.33;56.45
47536;BME280;33278;50.826;9.030;2022-07-22T07:31:17;99026.38;;;22.35;56.04
47536;BME280;33278;50.826;9.030;2022-07-22T07:33:48;99032.63;;;22.36;56.09
47536;BME280;33278;50.826;9.030;2022-07-22T07:36:18;99031.66;;;22.32;55.93
47536;BME280;33278;50.826;9.030;2022-07-22T07:38:49;99019.34;;;22.34;56.16
47536;BME280;33278;50.826;9.030;2022-07-22T07:41:20;99025.25;;;22.36;56.07
47536;BME280;33278;50.826;9.030;2022-07-22T07:43:50;99026.06;;;22.37;55.88
47536;BME280;33278;50.826;9.030;2022-07-22T07:46:20;99023.84;;;22.39;55.94
47536;BME280;33278;50.826;9.030;2022-07-22T07:48:51;99019.25;;;22.39;56.20
47536;BME280;33278;50.826;9.030;2022-07-22T07:51:21;99013.00;;;22.39;56.08
47536;BME280;33278;50.826;9.030;2022-07-22T07:53:52;99010.75;;;22.41;56.16
47536;BME280;33278;50.826;9.030;2022-07-22T07:56:22;99010.75;;;22.41;56.37
47536;BME280;33278;50.826;9.030;2022-07-22T07:58:52;99016.19;;;22.41;56.20
47536;BME280;33278;50.826;9.030;2022-07-22T08:01:23;99012.69;;;22.40;56.37
47536;BME280;33278;50.826;9.030;2022-07-22T08:03:53;99018.59;;;22.42;56.47
47536;BME280;33278;50.826;9.030;2022-07-22T08:06:24;99013.16;;;22.42;56.18
47536;BME280;33278;50.826;9.030;2022-07-22T08:08:54;99010.13;;;22.44;56.22
47536;BME280;33278;50.826;9.030;2022-07-22T08:11:24;99011.25;;;22.43;55.88
47536;BME280;33278;50.826;9.030;2022-07-22T08:13:54;99014.75;;;22.43;55.94
47536;BME280;33278;50.826;9.030;2022-07-22T08:16:25;99002.78;;;22.44;55.84
47536;BME280;33278;50.826;9.030;2022-07-22T08:18:55;99003.59;;;22.45;56.15
47536;BME280;33278;50.826;9.030;2022-07-22T08:21:25;99003.25;;;22.47;56.21
47536;BME280;33278;50.826;9.030;2022-07-22T08:23:56;99011.41;;;22.47;56.06
47536;BME280;33278;50.826;9.030;2022-07-22T08:26:26;99007.56;;;22.48;56.13
47536;BME280;33278;50.826;9.030;2022-07-22T08:28:57;99011.41;;;22.47;56.14
47536;BME280;33278;50.826;9.030;2022-07-22T08:31:28;99004.03;;;22.47;56.15
47536;BME280;33278;50.826;9.030;2022-07-22T08:33:58;99009.47;;;22.47;55.94
47536;BME280;33278;50.826;9.030;2022-07-22T08:36:30;99011.88;;;22.49;55.53
47536;BME280;33278;50.826;9.030;2022-07-22T08:39:01;99008.84;;;22.50;55.55
47536;BME280;33278;50.826;9.030;2022-07-22T08:41:36;98997.16;;;22.50;55.54
47536;BME280;33278;50.826;9.030;2022-07-22T08:44:09;98987.13;;;22.50;55.60
47536;BME280;33278;50.826;9.030;2022-07-22T08:46:39;98990.63;;;22.51;55.80
47536;BME280;33278;50.826;9.030;2022-07-22T08:49:13;98998.47;;;22.52;55.64
47536;BME280;33278;50.826;9.030;2022-07-22T08:51:43;98987.59;;;22.52;55.45
47536;BME280;33278;50.826;9.030;2022-07-22T08:54:13;98990.31;;;22.52;55.74
47536;BME280;33278;50.826;9.030;2022-07-22T08:56:51;98987.59;;;22.52;55.42
47536;BME280;33278;50.826;9.030;2022-07-22T08:59:22;98978.03;;;22.55;55.66
47536;BME280;33278;50.826;9.030;2022-07-22T09:02:06;98978.03;;;22.55;55.51
47536;BME280;33278;50.826;9.030;2022-07-22T09:07:40;98982.63;;;22.54;54.42
47536;BME280;33278;50.826;9.030;2022-07-22T09:10:13;98973.69;;;22.54;55.34
47536;BME280;33278;50.826;9.030;2022-07-22T09:12:55;98983.75;;;22.53;55.33
47536;BME280;33278;50.826;9.030;2022-07-22T09:15:40;98979.13;;;22.54;55.21
47536;BME280;33278;50.826;9.030;2022-07-22T09:18:15;98982.63;;;22.54;55.11
47536;BME280;33278;50.826;9.030;2022-07-22T09:20:46;98984.22;;;22.55;55.05
47536;BME280;33278;50.826;9.030;2022-07-22T09:23:18;98985.03;;;22.56;54.93
47536;BME280;33278;50.826;9.030;2022-07-22T09:25:52;98985.03;;;22.56;54.84
47536;BME280;33278;50.826;9.030;2022-07-22T09:28:23;98985.03;;;22.56;54.71
47536;BME280;33278;50.826;9.030;2022-07-22T09:30:54;98986.63;;;22.57;54.86
47536;BME280;33278;50.826;9.030;2022-07-22T09:33:25;98989.03;;;22.58;54.64
47536;BME280;33278;50.826;9.030;2022-07-22T09:36:04;98985.50;;;22.58;54.23
47536;BME280;33278;50.826;9.030;2022-07-22T09:38:34;98982.78;;;22.58;53.90
47536;BME280;33278;50.826;9.030;2022-07-22T09:41:05;98977.50;;;22.61;53.94
47536;BME280;33278;50.826;9.030;2022-07-22T09:43:36;98972.41;;;22.60;54.13
47536;BME280;33278;50.826;9.030;2022-07-22T09:46:06;98976.56;;;22.57;54.64
47536;BME280;33278;50.826;9.030;2022-07-22T09:48:38;98976.56;;;22.57;54.79
47536;BME280;33278;50.826;9.030;2022-07-22T09:51:09;98973.03;;;22.57;54.80
47536;BME280;33278;50.826;9.030;2022-07-22T09:53:39;98968.09;;;22.59;54.33
47536;BME280;33278;50.826;9.030;2022-07-22T09:56:10;98966.19;;;22.59;54.68
47536;BME280;33278;50.826;9.030;2022-07-22T09:58:41;98968.09;;;22.59;54.85
47536;BME280;33278;50.826;9.030;2022-07-22T10:01:12;98975.47;;;22.58;54.79
47536;BME280;33278;50.826;9.030;2022-07-22T10:03:43;98975.13;;;22.60;54.97
47536;BME280;33278;50.826;9.030;2022-07-22T10:06:16;98975.13;;;22.60;54.79
47536;BME280;33278;50.826;9.030;2022-07-22T10:08:46;98972.88;;;22.62;54.54
47536;BME280;33278;50.826;9.030;2022-07-22T10:11:17;98964.75;;;22.62;54.79
47536;BME280;33278;50.826;9.030;2022-07-22T10:13:48;98961.69;;;22.64;54.45
47536;BME280;33278;50.826;9.030;2022-07-22T10:16:18;98964.41;;;22.64;54.67
47536;BME280;33278;50.826;9.030;2022-07-22T10:18:49;98966.66;;;22.61;54.96
47536;BME280;33278;50.826;9.030;2022-07-22T10:21:31;98961.22;;;22.61;54.94
47536;BME280;33278;50.826;9.030;2022-07-22T10:24:13;98956.59;;;22.62;54.90
47536;BME280;33278;50.826;9.030;2022-07-22T10:26:49;98958.19;;;22.63;54.49
47536;BME280;33278;50.826;9.030;2022-07-22T10:29:30;98954.38;;;22.64;54.67
47536;BME280;33278;50.826;9.030;2022-07-22T10:40:23;98945.41;;;22.64;54.67
47536;BME280;33278;50.826;9.030;2022-07-22T10:45:39;98937.25;;;22.64;54.24
47536;BME280;33278;50.826;9.030;2022-07-22T10:48:12;98934.53;;;22.64;54.68
47536;BME280;33278;50.826;9.030;2022-07-22T10:50:45;98934.22;;;22.65;54.25
47536;BME280;33278;50.826;9.030;2022-07-22T10:53:39;98929.59;;;22.66;54.11
47536;BME280;33278;50.826;9.030;2022-07-22T10:56:38;98935.50;;;22.68;53.94
47536;BME280;33278;50.826;9.030;2022-07-22T11:01:46;98927.66;;;22.66;54.23
47536;BME280;33278;50.826;9.030;2022-07-22T11:04:24;98927.66;;;22.66;54.14
47536;BME280;33278;50.826;9.030;2022-07-22T11:06:57;98916.34;;;22.64;54.50
47536;BME280;33278;50.826;9.030;2022-07-22T11:09:33;98912.47;;;22.65;54.40
47536;BME280;33278;50.826;9.030;2022-07-22T11:12:12;98921.44;;;22.66;54.14
47536;BME280;33278;50.826;9.030;2022-07-22T11:14:42;98920.63;;;22.65;54.26
47536;BME280;33278;50.826;9.030;2022-07-22T11:17:12;98925.28;;;22.65;54.44
47536;BME280;33278;50.826;9.030;2022-07-22T11:19:50;98922.56;;;22.65;54.47
47536;BME280;33278;50.826;9.030;2022-07-22T11:22:21;98919.84;;;22.65;54.65
47536;BME280;33278;50.826;9.030;2022-07-22T11:24:51;98923.34;;;22.65;54.30
47536;BME280;33278;50.826;9.030;2022-07-22T11:27:21;98912.97;;;22.67;54.29
47536;BME280;33278;50.826;9.030;2022-07-22T11:29:53;98922.22;;;22.66;54.26
47536;BME280;33278;50.826;9.030;2022-07-22T11:32:25;98913.78;;;22.68;54.44
47536;BME280;33278;50.826;9.030;2022-07-22T11:34:58;98912.19;;;22.67;53.87
47536;BME280;33278;50.826;9.030;2022-07-22T11:37:29;98905.63;;;22.68;54.00
47536;BME280;33278;50.826;9.030;2022-07-22T11:40:02;98904.81;;;22.67;54.25
47536;BME280;33278;50.826;9.030;2022-07-22T11:42:33;98903.22;;;22.66;54.03
47536;BME280;33278;50.826;9.030;2022-07-22T11:45:04;98903.22;;;22.66;54.39
47536;BME280;33278;50.826;9.030;2022-07-22T11:47:34;98896.66;;;22.67;54.37
47536;BME280;33278;50.826;9.030;2022-07-22T11:50:05;98888.53;;;22.67;54.28
47536;BME280;33278;50.826;9.030;2022-07-22T11:52:36;98892.06;;;22.68;54.10
47536;BME280;33278;50.826;9.030;2022-07-22T11:55:15;98886.63;;;22.68;54.38
47536;BME280;33278;50.826;9.030;2022-07-22T11:57:48;98888.53;;;22.67;54.31
47536;BME280;33278;50.826;9.030;2022-07-22T12:00:19;98887.41;;;22.68;53.89
47536;BME280;33278;50.826;9.030;2022-07-22T12:02:49;98878.91;;;22.70;54.01
47536;BME280;33278;50.826;9.030;2022-07-22T12:05:20;98882.75;;;22.69;54.04
47536;BME280;33278;50.826;9.030;2022-07-22T12:07:50;98876.53;;;22.68;53.97
47536;BME280;33278;50.826;9.030;2022-07-22T12:10:20;98878.13;;;22.69;54.01
47536;BME280;33278;50.826;9.030;2022-07-22T12:12:51;98872.38;;;22.71;54.19
47536;BME280;33278;50.826;9.030;2022-07-22T12:15:22;98863.44;;;22.70;53.93
47536;BME280;33278;50.826;9.030;2022-07-22T12:17:52;98865.81;;;22.72;54.19
47536;BME280;33278;50.826;9.030;2022-07-22T12:20:25;98867.28;;;22.69;54.01
47536;BME280;33278;50.826;9.030;2022-07-22T12:22:56;98866.16;;;22.70;53.81
47536;BME280;33278;50.826;9.030;2022-07-22T12:25:26;98863.44;;;22.70;54.11
47536;BME280;33278;50.826;9.030;2022-07-22T12:28:00;98870.47;;;22.71;53.77
47536;BME280;33278;50.826;9.030;2022-07-22T12:30:31;98865.34;;;22.70;54.23
47536;BME280;33278;50.826;9.030;2022-07-22T12:33:02;98858.00;;;22.70;53.94
47536;BME280;33278;50.826;9.030;2022-07-22T12:35:32;98854.19;;;22.71;53.99
47536;BME280;33278;50.826;9.030;2022-07-22T12:38:06;98869.31;;;22.72;53.83
47536;BME280;33278;50.826;9.030;2022-07-22T12:40:37;98859.28;;;22.73;53.94
47536;BME280;33278;50.826;9.030;2022-07-22T12:43:09;98861.66;;;22.74;53.91
47536;BME280;33278;50.826;9.030;2022-07-22T12:45:39;98853.84;;;22.73;53.81
47536;BME280;33278;50.826;9.030;2022-07-22T12:48:11;98854.19;;;22.71;53.98
47536;BME280;33278;50.826;9.030;2022-07-22T12:50:56;98859.28;;;22.73;53.78
47536;BME280;33278;50.826;9.030;2022-07-22T12:53:27;98858.94;;;22.74;54.03
47536;BME280;33278;50.826;9.030;2022-07-22T12:55:59;98850.78;;;22.74;53.87
47536;BME280;33278;50.826;9.030;2022-07-22T12:58:31;98846.94;;;22.75;53.71
47536;BME280;33278;50.826;9.030;2022-07-22T13:01:02;98844.56;;;22.74;53.48
47536;BME280;33278;50.826;9.030;2022-07-22T13:03:33;98842.63;;;22.74;53.63
47536;BME280;33278;50.826;9.030;2022-07-22T13:06:04;98846.16;;;22.75;53.79
47536;BME280;33278;50.826;9.030;2022-07-22T13:08:34;98831.78;;;22.74;53.49
47536;BME280;33278;50.826;9.030;2022-07-22T13:11:05;98835.59;;;22.73;53.83
47536;BME280;33278;50.826;9.030;2022-07-22T13:13:35;98833.72;;;22.74;53.87
47536;BME280;33278;50.826;9.030;2022-07-22T13:16:06;98828.28;;;22.74;53.62
47536;BME280;33278;50.826;9.030;2022-07-22T13:18:36;98829.88;;;22.75;53.64
47536;BME280;33278;50.826;9.030;2022-07-22T13:21:06;98825.22;;;22.75;53.44
47536;BME280;33278;50.826;9.030;2022-07-22T13:23:37;98824.44;;;22.75;53.65
47536;BME280;33278;50.826;9.030;2022-07-22T13:26:07;98813.25;;;22.76;53.48
47536;BME280;33278;50.826;9.030;2022-07-22T13:28:38;98817.56;;;22.77;53.27
47536;BME280;33278;50.826;9.030;2022-07-22T13:31:09;98817.56;;;22.77;53.30
47536;BME280;33278;50.826;9.030;2022-07-22T13:33:39;98815.16;;;22.76;53.35
47536;BME280;33278;50.826;9.030;2022-07-22T13:36:09;98814.03;;;22.77;53.55
47536;BME280;33278;50.826;9.030;2022-07-22T13:38:40;98812.44;;;22.76;53.56